Time;durP1;ratioP1;P1;durP2;ratioP2;P2;SDS_P1;SDS_P2;PMS_P1;PMS_P2;Temp;Humidity;BMP_temperature;BMP_pressure;BME280_temperature;BME280_humidity;BME280_pressure;Samples;Min_cycle;Max_cycle;Signal;HPM_P1;HPM_P2
2021/03/19 00:00:04;;;;;;;2.90;2.28;;;;;;;9.55;78.96;102546.31;5068665;28;20114;-48
2021/03/19 00:02:31;;;;;;;2.83;2.17;;;;;;;9.56;79.04;102550.69;5069548;28;20090;-53
2021/03/19 00:04:59;;;;;;;3.40;2.35;;;;;;;9.58;79.09;102545.72;5069399;28;20432;-49
2021/03/19 00:07:25;;;;;;;12.45;3.55;;;;;;;9.60;78.91;102538.78;5069825;28;20473;-53
2021/03/19 00:09:53;;;;;;;3.85;2.42;;;;;;;9.60;79.12;102551.78;5069572;28;20044;-52
2021/03/19 00:12:21;;;;;;;2.83;2.28;;;;;;;9.59;79.43;102536.28;5050502;28;20074;-51
2021/03/19 00:14:48;;;;;;;2.70;2.00;;;;;;;9.56;79.19;102532.16;5067275;28;20059;-49
2021/03/19 00:17:15;;;;;;;6.63;2.33;;;;;;;9.56;79.29;102531.34;5069688;28;20048;-55
2021/03/19 00:19:41;;;;;;;2.50;1.98;;;;;;;9.56;79.14;102534.09;5066852;28;20044;-52
2021/03/19 00:22:08;;;;;;;2.20;1.83;;;;;;;9.52;79.18;102527.53;5069266;28;20051;-49
2021/03/19 00:24:34;;;;;;;2.30;1.90;;;;;;;9.51;79.21;102543.28;5070785;28;20052;-51
2021/03/19 00:27:00;;;;;;;2.95;2.00;;;;;;;9.46;79.42;102543.34;5072821;28;20091;-47
2021/03/19 00:29:26;;;;;;;2.65;2.40;;;;;;;9.48;79.49;102540.28;5071845;28;20545;-49
2021/03/19 00:31:53;;;;;;;3.20;2.38;;;;;;;9.49;79.29;102545.53;5073305;28;20079;-51
2021/03/19 00:34:19;;;;;;;2.28;2.08;;;;;;;9.48;79.39;102537.53;5071257;28;20040;-51
2021/03/19 00:36:46;;;;;;;2.92;2.55;;;;;;;9.53;79.20;102538.28;5073176;28;20055;-48
2021/03/19 00:39:13;;;;;;;2.85;2.17;;;;;;;9.55;79.25;102532.47;5085297;28;20052;-50
2021/03/19 00:41:40;;;;;;;5.53;2.40;;;;;;;9.58;79.23;102545.72;5072186;28;20075;-50
2021/03/19 00:44:06;;;;;;;2.17;1.95;;;;;;;9.61;79.14;102537.63;5071710;28;20052;-51
2021/03/19 00:46:32;;;;;;;5.57;3.88;;;;;;;9.61;78.98;102543.16;5072741;28;20105;-53
2021/03/19 00:48:59;;;;;;;2.67;2.38;;;;;;;9.55;78.99;102538.84;5071251;28;20048;-50
2021/03/19 00:51:25;;;;;;;5.30;2.50;;;;;;;9.54;79.44;102544.66;5072572;28;20060;-52
2021/03/19 00:53:52;;;;;;;2.75;2.28;;;;;;;9.53;79.22;102549.34;5072964;28;20121;-47
2021/03/19 00:56:18;;;;;;;2.95;2.20;;;;;;;9.51;79.33;102557.13;5072528;28;20052;-49
2021/03/19 00:58:44;;;;;;;2.25;1.80;;;;;;;9.47;79.42;102542.25;5070990;28;20386;-52
2021/03/19 01:01:11;;;;;;;3.05;2.47;;;;;;;9.46;79.36;102534.22;5071176;28;20570;-49
2021/03/19 01:03:37;;;;;;;6.10;3.67;;;;;;;9.43;79.46;102538.41;5071443;28;20505;-49
2021/03/19 01:06:04;;;;;;;2.53;1.90;;;;;;;9.37;79.72;102538.78;5071917;28;20044;-49
2021/03/19 01:08:30;;;;;;;6.20;2.53;;;;;;;9.34;79.66;102533.84;5072192;28;20124;-52
2021/03/19 01:10:57;;;;;;;3.50;1.92;;;;;;;9.31;79.47;102515.91;5071740;28;20117;-50
2021/03/19 01:13:25;;;;;;;2.85;2.60;;;;;;;9.26;79.69;102524.25;5071685;28;20139;-47
2021/03/19 01:15:54;;;;;;;2.85;2.53;;;;;;;9.24;79.74;102536.72;5071564;28;20044;-54
2021/03/19 01:18:24;;;;;;;3.20;2.28;;;;;;;9.25;79.57;102535.56;5045346;28;20052;-53
2021/03/19 01:21:10;;;;;;;3.22;2.63;;;;;;;9.23;79.57;102537.81;5044261;28;20088;-52
2021/03/19 01:23:37;;;;;;;2.53;2.22;;;;;;;9.21;79.55;102537.28;5061600;28;20040;-53
2021/03/19 01:26:03;;;;;;;3.67;2.08;;;;;;;9.18;79.52;102534.00;5070299;28;20053;-52
2021/03/19 01:28:29;;;;;;;4.13;3.00;;;;;;;9.19;79.56;102543.94;5052906;28;20040;-51
2021/03/19 01:30:56;;;;;;;3.28;2.20;;;;;;;9.16;79.62;102538.97;5072358;28;20040;-51
2021/03/19 01:33:22;;;;;;;3.90;1.90;;;;;;;9.11;79.63;102530.75;5071045;28;20036;-49
2021/03/19 01:35:49;;;;;;;2.08;1.80;;;;;;;9.11;79.83;102530.75;5070503;28;20431;-53
2021/03/19 01:38:15;;;;;;;2.88;1.83;;;;;;;9.08;79.87;102534.09;5071600;28;20456;-54
2021/03/19 01:40:45;;;;;;;2.35;2.15;;;;;;;9.08;79.75;102531.31;5071252;28;20048;-51
2021/03/19 01:43:33;;;;;;;2.55;2.35;;;;;;;9.07;79.78;102535.22;5071645;28;20393;-54
2021/03/19 01:46:37;;;;;;;3.95;2.10;;;;;;;9.01;80.10;102535.53;5071077;28;20068;-49
2021/03/19 01:49:41;;;;;;;2.05;1.77;;;;;;;8.96;80.44;102541.94;5070584;28;20055;-52
2021/03/19 01:52:45;;;;;;;2.90;2.58;;;;;;;8.93;80.02;102544.47;5070230;28;20044;-54
2021/03/19 01:55:48;;;;;;;3.00;1.88;;;;;;;8.90;80.09;102551.41;5062447;28;20041;-53
2021/03/19 01:58:52;;;;;;;3.45;1.88;;;;;;;8.90;79.91;102543.09;5055876;28;20080;-52
2021/03/19 02:01:56;;;;;;;5.50;2.63;;;;;;;8.89;79.67;102535.94;5059262;28;20056;-48
2021/03/19 02:05:00;;;;;;;3.55;2.53;;;;;;;8.87;79.87;102545.66;5071321;28;20045;-52
2021/03/19 02:08:05;;;;;;;2.60;1.70;;;;;;;8.87;79.83;102543.69;5070418;28;20051;-50
2021/03/19 02:11:09;;;;;;;3.28;2.97;;;;;;;8.83;79.56;102544.56;5070678;28;20037;-50
2021/03/19 02:14:13;;;;;;;2.85;2.55;;;;;;;8.77;79.72;102535.50;5070517;28;20090;-48
2021/03/19 02:17:17;;;;;;;4.00;2.42;;;;;;;8.74;79.67;102529.72;5063072;28;20114;-48
2021/03/19 02:20:21;;;;;;;3.42;2.58;;;;;;;8.74;80.05;102532.47;5058112;28;20127;-49
2021/03/19 02:23:24;;;;;;;4.13;2.72;;;;;;;8.71;79.87;102531.13;5070978;28;20080;-47
2021/03/19 02:26:28;;;;;;;2.92;2.50;;;;;;;8.68;80.01;102534.50;5065143;28;20036;-48
2021/03/19 02:29:33;;;;;;;4.38;2.65;;;;;;;8.68;80.01;102531.72;5069321;28;20090;-48
2021/03/19 02:32:17;;;;;;;3.95;2.67;;;;;;;8.68;79.86;102536.41;5070046;28;20080;-48
2021/03/19 02:34:50;;;;;;;4.20;2.38;;;;;;;8.62;79.76;102526.53;5070500;28;20052;-49
2021/03/19 02:37:19;;;;;;;4.00;2.80;;;;;;;8.57;79.89;102530.16;5071025;28;20098;-52
2021/03/19 02:39:48;;;;;;;4.15;3.30;;;;;;;8.57;79.99;102536.50;5068534;28;20440;-50
2021/03/19 02:42:18;;;;;;;3.38;2.45;;;;;;;8.56;80.04;102534.84;5070748;28;20060;-49
2021/03/19 02:44:44;;;;;;;6.60;3.60;;;;;;;8.54;79.93;102536.25;5049046;28;20490;-50
2021/03/19 02:47:11;;;;;;;2.97;2.30;;;;;;;8.54;79.98;102525.22;5065948;28;20127;-47
2021/03/19 02:49:38;;;;;;;3.28;2.45;;;;;;;8.53;79.82;102534.59;5069632;28;20719;-53
2021/03/19 02:52:22;;;;;;;3.28;2.90;;;;;;;8.45;79.94;102526.91;5070736;28;20048;-53
2021/03/19 02:54:49;;;;;;;2.65;1.95;;;;;;;8.42;79.98;102521.97;5069035;28;20055;-48
2021/03/19 02:57:16;;;;;;;3.00;2.30;;;;;;;8.36;80.21;102518.44;5070001;28;20054;-50
2021/03/19 02:59:44;;;;;;;3.60;2.40;;;;;;;8.35;80.29;102519.56;5066892;28;20097;-50
2021/03/19 03:02:11;;;;;;;10.40;5.15;;;;;;;8.37;80.09;102525.59;5067863;28;20056;-48
2021/03/19 03:04:37;;;;;;;3.17;2.25;;;;;;;8.37;80.29;102530.28;5053768;28;20051;-47
2021/03/19 03:07:04;;;;;;;4.13;2.38;;;;;;;8.36;80.33;102528.66;5063695;28;20036;-50
2021/03/19 03:09:33;;;;;;;2.53;1.73;;;;;;;8.33;80.24;102523.72;5050978;28;20064;-52
2021/03/19 03:12:01;;;;;;;3.13;2.70;;;;;;;8.29;80.29;102528.97;5069539;28;20074;-50
2021/03/19 03:14:30;;;;;;;3.60;2.63;;;;;;;8.32;80.10;102527.56;5070601;28;20591;-50
2021/03/19 03:16:58;;;;;;;7.68;2.85;;;;;;;8.30;79.95;102518.75;5069188;28;20036;-53
2021/03/19 03:19:25;;;;;;;3.97;2.25;;;;;;;8.29;79.91;102519.84;5069373;28;20768;-55
2021/03/19 03:21:53;;;;;;;4.93;2.55;;;;;;;8.24;79.97;102519.88;5070537;28;20049;-47
2021/03/19 03:24:21;;;;;;;5.90;1.88;;;;;;;8.22;80.04;102522.94;5068538;28;20079;-52
2021/03/19 03:26:47;;;;;;;2.65;2.13;;;;;;;8.18;80.08;102521.84;5051403;28;20102;-47
2021/03/19 03:29:14;;;;;;;2.67;2.25;;;;;;;8.18;79.92;102518.28;5068564;28;20526;-47
2021/03/19 03:31:42;;;;;;;2.47;2.10;;;;;;;8.13;79.91;102518.31;5069600;28;20475;-48
2021/03/19 03:34:09;;;;;;;2.67;2.20;;;;;;;8.10;80.01;102518.88;5069832;28;20555;-49
2021/03/19 03:36:40;;;;;;;4.45;2.53;;;;;;;8.06;80.17;102528.81;5069755;28;20481;-48
2021/03/19 03:39:11;;;;;;;3.42;2.70;;;;;;;8.04;80.36;102518.06;5070305;28;20049;-50
2021/03/19 03:41:40;;;;;;;3.67;2.20;;;;;;;8.02;80.25;102514.78;5072456;28;20118;-47
2021/03/19 03:44:13;;;;;;;2.88;2.25;;;;;;;8.03;80.10;102526.63;5070201;28;20071;-52
2021/03/19 03:46:42;;;;;;;3.40;2.35;;;;;;;8.06;80.03;102529.66;5069224;28;20068;-50
2021/03/19 03:49:09;;;;;;;3.00;2.00;;;;;;;8.07;79.76;102524.97;5069565;28;20036;-52
2021/03/19 03:51:37;;;;;;;3.70;3.17;;;;;;;7.98;79.99;102535.75;5069718;28;20098;-52
2021/03/19 03:54:03;;;;;;;5.45;3.50;;;;;;;7.94;80.03;102537.44;5069085;28;20472;-52
2021/03/19 03:56:30;;;;;;;4.07;3.45;;;;;;;7.91;80.02;102540.78;5068395;28;20102;-48
2021/03/19 03:58:57;;;;;;;3.65;3.28;;;;;;;7.83;80.06;102541.34;5046857;28;20044;-48
2021/03/19 04:01:24;;;;;;;4.65;3.47;;;;;;;7.76;80.16;102563.72;5073005;28;20405;-50
2021/03/19 04:03:51;;;;;;;2.78;2.20;;;;;;;7.74;80.41;102557.66;5073519;28;20497;-48
2021/03/19 04:06:18;;;;;;;4.50;3.00;;;;;;;7.70;80.37;102553.00;5073505;28;20044;-51
2021/03/19 04:08:45;;;;;;;3.25;2.70;;;;;;;7.72;80.20;102550.78;5073173;28;20059;-54
2021/03/19 04:11:13;;;;;;;3.10;2.80;;;;;;;7.71;80.11;102560.97;5072414;28;20048;-50
2021/03/19 04:13:40;;;;;;;2.85;2.10;;;;;;;7.70;80.15;102570.38;5073596;28;20443;-49
2021/03/19 04:16:08;;;;;;;3.22;2.45;;;;;;;7.66;80.32;102566.50;5072053;28;20477;-52
2021/03/19 04:18:34;;;;;;;2.38;1.85;;;;;;;7.62;80.46;102557.16;5073223;28;20771;-52
2021/03/19 04:21:07;;;;;;;4.82;2.72;;;;;;;7.59;80.76;102563.25;5072547;28;20131;-53
2021/03/19 04:23:36;;;;;;;3.03;2.40;;;;;;;7.59;80.75;102571.50;5059815;28;20045;-50
2021/03/19 04:26:04;;;;;;;6.82;3.38;;;;;;;7.58;80.53;102571.78;5073158;28;20049;-48
2021/03/19 04:28:37;;;;;;;3.10;2.80;;;;;;;7.55;80.79;102562.13;5054271;28;20044;-49
2021/03/19 04:31:04;;;;;;;2.30;2.08;;;;;;;7.54;80.55;102571.53;5072376;28;20049;-50
2021/03/19 04:33:32;;;;;;;2.88;2.42;;;;;;;7.54;80.55;102567.94;5054647;28;20090;-50
2021/03/19 04:36:17;;;;;;;3.03;2.65;;;;;;;7.52;80.32;102565.44;5054624;28;20053;-48
2021/03/19 04:38:44;;;;;;;3.67;2.83;;;;;;;7.50;80.16;102553.88;5068471;28;20455;-52
2021/03/19 04:41:10;;;;;;;4.18;2.08;;;;;;;7.48;80.45;102555.28;5072310;28;20432;-47
2021/03/19 04:43:37;;;;;;;2.50;2.22;;;;;;;7.50;80.63;102559.41;5073195;28;20044;-48
2021/03/19 04:46:03;;;;;;;3.00;2.25;;;;;;;7.49;80.55;102557.78;5062699;28;20155;-51
2021/03/19 04:48:30;;;;;;;3.20;2.17;;;;;;;7.46;80.85;102555.56;5070868;28;20401;-50
2021/03/19 04:50:56;;;;;;;3.25;1.92;;;;;;;7.47;80.58;102551.69;5072810;28;20040;-54
2021/03/19 04:53:24;;;;;;;2.85;2.10;;;;;;;7.46;80.51;102560.25;5072657;28;20374;-50
2021/03/19 04:55:50;;;;;;;2.08;1.73;;;;;;;7.41;80.69;102561.09;5072229;28;20106;-50
2021/03/19 04:58:17;;;;;;;2.08;1.77;;;;;;;7.42;80.71;102557.22;5053486;28;20033;-50
2021/03/19 05:00:44;;;;;;;2.03;1.52;;;;;;;7.44;80.42;102559.72;5071673;28;20044;-51
2021/03/19 05:03:11;;;;;;;2.55;1.50;;;;;;;7.41;80.50;102569.38;5072364;28;20405;-49
2021/03/19 05:05:37;;;;;;;2.97;1.88;;;;;;;7.37;80.83;102571.00;5071639;28;20044;-48
2021/03/19 05:08:04;;;;;;;3.90;1.50;;;;;;;7.35;80.67;102567.72;5070936;28;20078;-51
2021/03/19 05:10:34;;;;;;;1.55;1.38;;;;;;;7.34;80.66;102577.06;5070723;28;20378;-50
2021/03/19 05:13:01;;;;;;;2.15;1.55;;;;;;;7.31;81.02;102580.38;5067195;28;20061;-51
2021/03/19 05:15:30;;;;;;;1.58;1.33;;;;;;;7.27;81.09;102585.66;5072052;28;20537;-53
2021/03/19 05:17:57;;;;;;;1.33;1.23;;;;;;;7.28;80.97;102586.47;5071629;28;20037;-52
2021/03/19 05:20:24;;;;;;;1.52;1.40;;;;;;;7.26;81.03;102586.75;5071801;28;20040;-52
2021/03/19 05:22:51;;;;;;;2.30;1.60;;;;;;;7.25;80.92;102589.78;5071694;28;20048;-50
2021/03/19 05:25:25;;;;;;;3.00;1.58;;;;;;;7.23;80.86;102591.97;5072520;28;20079;-50
2021/03/19 05:27:57;;;;;;;3.20;1.95;;;;;;;7.23;80.92;102597.47;5071100;28;20041;-53
2021/03/19 05:30:24;;;;;;;3.53;1.73;;;;;;;7.22;80.88;102596.69;5071855;28;20078;-52
2021/03/19 05:32:51;;;;;;;2.85;1.98;;;;;;;7.21;81.02;102596.94;5071242;28;20048;-51
2021/03/19 05:35:21;;;;;;;2.22;1.98;;;;;;;7.19;80.91;102607.41;5071997;28;20135;-53
2021/03/19 05:37:49;;;;;;;3.53;2.30;;;;;;;7.19;80.66;102604.66;5053149;28;20040;-52
2021/03/19 05:40:38;;;;;;;3.92;2.30;;;;;;;7.16;80.77;102599.69;5072641;28;20052;-49
2021/03/19 05:43:22;;;;;;;2.85;2.13;;;;;;;7.11;81.07;102616.22;5064394;28;20044;-49
2021/03/19 05:46:06;;;;;;;3.00;2.15;;;;;;;7.08;81.02;102597.50;5071921;28;20049;-50
2021/03/19 05:48:38;;;;;;;2.15;1.85;;;;;;;7.10;81.11;102609.06;5071834;28;20424;-52
2021/03/19 05:51:06;;;;;;;2.15;1.95;;;;;;;7.06;81.08;102602.47;5070594;28;20044;-47
2021/03/19 05:53:49;;;;;;;5.15;2.25;;;;;;;7.00;81.42;102603.56;5070775;28;20481;-51
2021/03/19 05:56:18;;;;;;;2.38;1.88;;;;;;;7.00;81.45;102603.56;5036198;28;20087;-53
2021/03/19 05:58:45;;;;;;;2.95;1.90;;;;;;;6.99;81.38;102607.44;5069746;28;20531;-50
2021/03/19 06:01:15;;;;;;;4.25;2.13;;;;;;;6.98;81.43;102601.09;5070693;28;20048;-50
2021/03/19 06:03:44;;;;;;;3.85;1.80;;;;;;;7.00;81.38;102606.31;5064108;28;20055;-52
2021/03/19 06:06:12;;;;;;;5.82;2.13;;;;;;;6.98;81.09;102622.31;5070281;28;20036;-49
2021/03/19 06:08:42;;;;;;;2.60;2.20;;;;;;;6.95;81.80;102615.41;5070246;28;20473;-48
2021/03/19 06:11:15;;;;;;;1.70;1.60;;;;;;;6.95;81.33;102609.91;5070232;28;20485;-51
2021/03/19 06:13:47;;;;;;;4.18;2.00;;;;;;;6.94;81.43;102616.50;5070766;28;20076;-49
2021/03/19 06:16:40;;;;;;;3.13;1.70;;;;;;;6.94;81.70;102610.16;5071750;28;20554;-50
2021/03/19 06:19:38;;;;;;;1.67;1.42;;;;;;;6.89;81.55;102612.91;5053202;28;20049;-50
2021/03/19 06:22:24;;;;;;;1.77;1.40;;;;;;;6.86;81.65;102619.00;5071261;28;20041;-49
2021/03/19 06:25:21;;;;;;;1.85;1.48;;;;;;;6.85;81.52;102620.94;5071642;28;20045;-50
2021/03/19 06:27:59;;;;;;;1.65;1.55;;;;;;;6.82;81.45;102629.72;5069855;28;20040;-51
2021/03/19 06:30:28;;;;;;;3.33;1.80;;;;;;;6.84;81.49;102629.44;5070702;28;20925;-50
2021/03/19 06:33:11;;;;;;;1.67;1.45;;;;;;;6.81;81.63;102633.56;5070222;28;20041;-51
2021/03/19 06:36:06;;;;;;;1.73;1.42;;;;;;;6.83;81.54;102631.38;5070423;28;20056;-50
2021/03/19 06:38:48;;;;;;;4.20;2.05;;;;;;;6.82;81.32;102634.41;5069996;28;20047;-48
2021/03/19 06:41:14;;;;;;;5.60;1.63;;;;;;;6.82;81.39;102629.72;5077410;28;20104;-52
2021/03/19 06:43:40;;;;;;;2.60;1.65;;;;;;;6.81;81.11;102621.72;5074077;28;20052;-52
2021/03/19 06:46:23;;;;;;;3.58;2.03;;;;;;;6.79;81.63;102626.69;5070255;28;20062;-51
2021/03/19 06:48:53;;;;;;;3.20;2.00;;;;;;;6.79;81.30;102633.03;5064781;28;20040;-51
2021/03/19 06:51:37;;;;;;;2.97;2.08;;;;;;;6.75;81.45;102632.75;5070355;28;20119;-50
2021/03/19 06:54:08;;;;;;;3.88;2.03;;;;;;;6.73;81.41;102637.69;5070125;28;20440;-50
2021/03/19 06:56:36;;;;;;;5.10;1.92;;;;;;;6.75;81.58;102634.69;5066066;28;20110;-48
2021/03/19 06:59:21;;;;;;;5.07;2.97;;;;;;;6.73;81.51;102640.44;5069508;28;20117;-47
2021/03/19 07:01:48;;;;;;;4.93;2.10;;;;;;;6.74;81.63;102646.78;5068981;28;20401;-52
2021/03/19 07:04:49;;;;;;;4.68;2.13;;;;;;;6.78;82.28;102641.56;5070283;28;20451;-50
2021/03/19 07:07:18;;;;;;;2.55;2.15;;;;;;;6.85;82.27;102642.13;5058571;28;20098;-47
2021/03/19 07:10:07;;;;;;;4.00;2.60;;;;;;;6.88;82.19;102628.63;5061233;28;20450;-49
2021/03/19 07:12:33;;;;;;;2.38;2.10;;;;;;;6.92;82.35;102648.16;5068509;28;20052;-51
2021/03/19 07:15:21;;;;;;;3.92;3.15;;;;;;;6.97;82.62;102662.78;5070370;28;20059;-52
2021/03/19 07:17:56;;;;;;;3.63;2.30;;;;;;;7.06;82.43;102650.13;5069634;28;20044;-52
2021/03/19 07:20:49;;;;;;;3.67;2.35;;;;;;;7.14;82.35;102665.25;5063483;28;20029;-51
2021/03/19 07:23:30;;;;;;;2.45;2.13;;;;;;;7.21;82.78;102666.63;5067095;28;20064;-54
2021/03/19 07:26:01;;;;;;;4.65;2.97;;;;;;;7.25;82.48;102664.16;5058473;28;20048;-50
2021/03/19 07:28:33;;;;;;;3.83;2.40;;;;;;;7.30;82.53;102669.66;5069400;28;20143;-53
2021/03/19 07:31:27;;;;;;;2.55;1.65;;;;;;;7.36;82.71;102668.53;5070376;28;20036;-53
2021/03/19 07:34:02;;;;;;;3.38;1.92;;;;;;;7.43;82.54;102669.09;5068416;28;20047;-53
2021/03/19 07:36:43;;;;;;;2.00;1.90;;;;;;;7.47;82.58;102669.34;5065031;28;20505;-52
2021/03/19 07:39:31;;;;;;;1.30;1.20;;;;;;;7.47;82.37;102677.63;5069850;28;20048;-52
2021/03/19 07:42:02;;;;;;;2.17;1.98;;;;;;;7.44;82.33;102679.00;5063917;28;20763;-53
2021/03/19 07:44:37;;;;;;;2.22;1.60;;;;;;;7.38;82.57;102680.13;5062222;28;20048;-53
2021/03/19 07:47:22;;;;;;;2.15;1.95;;;;;;;7.33;82.33;102674.63;5069922;28;20078;-50
2021/03/19 07:50:15;;;;;;;3.22;1.73;;;;;;;7.38;82.70;102688.41;5068047;28;20045;-52
2021/03/19 07:53:02;;;;;;;4.05;1.63;;;;;;;7.50;82.57;102683.41;5065165;28;20056;-49
2021/03/19 07:55:39;;;;;;;2.40;1.80;;;;;;;7.58;82.60;102685.63;5071010;28;20123;-50
2021/03/19 07:58:35;;;;;;;1.70;1.55;;;;;;;7.59;82.69;102681.75;5059368;28;20503;-51
2021/03/19 08:01:36;;;;;;;5.07;2.20;;;;;;;7.61;82.79;102676.78;5069715;28;20440;-49
2021/03/19 08:04:20;;;;;;;1.88;1.45;;;;;;;7.59;82.71;102678.19;5029560;28;20556;-52
2021/03/19 08:07:01;;;;;;;3.05;1.70;;;;;;;7.62;82.84;102686.72;5063989;28;20052;-49
2021/03/19 08:09:48;;;;;;;2.40;1.73;;;;;;;7.73;82.53;102687.53;5068450;28;20126;-48
2021/03/19 08:12:29;;;;;;;1.65;1.50;;;;;;;7.83;82.29;102702.13;5069375;28;20052;-47
2021/03/19 08:15:20;;;;;;;2.67;1.48;;;;;;;7.86;82.25;102709.81;5069524;28;20053;-54
2021/03/19 08:18:01;;;;;;;2.10;1.95;;;;;;;7.87;82.26;102708.72;5068055;28;20040;-51
2021/03/19 08:20:51;;;;;;;2.58;2.13;;;;;;;7.92;82.40;102705.94;5068278;28;20037;-51
2021/03/19 08:23:30;;;;;;;2.90;2.00;;;;;;;8.02;82.11;102712.56;5052022;28;20072;-50
2021/03/19 08:25:57;;;;;;;4.68;2.00;;;;;;;8.08;82.21;102719.69;5068262;28;20036;-49
2021/03/19 08:28:26;;;;;;;2.25;1.95;;;;;;;8.25;82.09;102712.75;5068271;28;20102;-49
2021/03/19 08:31:15;;;;;;;2.17;1.98;;;;;;;8.28;81.81;102703.09;5068890;28;20056;-48
2021/03/19 08:34:18;;;;;;;1.98;1.40;;;;;;;8.20;81.67;102721.03;5050209;28;20033;-51
2021/03/19 08:36:48;;;;;;;2.25;1.20;;;;;;;8.12;81.71;102713.34;5069509;28;20032;-51
2021/03/19 08:39:38;;;;;;;5.25;1.90;;;;;;;8.14;81.72;102721.31;5069110;28;20398;-52
2021/03/19 08:42:14;;;;;;;3.47;2.58;;;;;;;8.20;81.79;102712.78;5068846;28;20068;-54
2021/03/19 08:44:42;;;;;;;1.98;1.67;;;;;;;8.37;81.88;102717.97;5070204;28;20067;-47
2021/03/19 08:47:27;;;;;;;3.75;2.65;;;;;;;8.49;81.65;102721.22;5063973;28;20141;-48
2021/03/19 08:50:00;;;;;;;3.42;2.33;;;;;;;8.51;81.36;102713.50;5070664;28;20040;-49
2021/03/19 08:52:32;;;;;;;;;;;;;;;8.46;81.38;102710.75;5066939;28;20521;-49
2021/03/19 08:55:14;;;;;;;3.15;2.28;;;;;;;8.51;81.76;102714.31;5071973;28;20406;-48
2021/03/19 08:57:44;;;;;;;3.78;2.30;;;;;;;8.68;81.77;102716.72;5070950;28;20036;-48
2021/03/19 09:00:26;;;;;;;2.05;1.85;;;;;;;8.83;81.68;102710.28;5069611;28;20068;-52
2021/03/19 09:02:54;;;;;;;2.80;2.35;;;;;;;8.91;81.05;102713.25;5070549;28;20048;-48
2021/03/19 09:06:02;;;;;;;2.30;2.10;;;;;;;8.98;80.77;102719.28;5072745;28;20040;-46
2021/03/19 09:08:29;;;;;;;1.75;1.52;;;;;;;9.02;81.19;102725.06;5059940;28;20110;-49
2021/03/19 09:10:59;;;;;;;4.15;1.73;;;;;;;9.04;81.14;102725.59;5070467;28;20375;-46
2021/03/19 09:13:25;;;;;;;2.60;1.85;;;;;;;9.19;81.49;102734.59;5071166;28;20131;-51
2021/03/19 09:15:54;;;;;;;2.40;2.20;;;;;;;9.33;81.27;102732.03;5071065;28;20052;-49
2021/03/19 09:18:48;;;;;;;3.30;2.28;;;;;;;9.33;80.36;102743.06;5070425;28;20041;-51
2021/03/19 09:21:20;;;;;;;2.60;2.20;;;;;;;9.41;80.62;102736.09;5043486;28;20052;-50
2021/03/19 09:24:10;;;;;;;2.22;1.90;;;;;;;9.44;80.19;102744.66;5054448;28;20055;-46
2021/03/19 09:26:56;;;;;;;3.90;2.20;;;;;;;9.55;79.99;102739.88;5052528;28;20069;-49
2021/03/19 09:29:28;;;;;;;4.95;2.25;;;;;;;9.74;80.28;102743.56;5071057;28;20040;-50
2021/03/19 09:31:58;;;;;;;5.60;2.40;;;;;;;10.06;80.17;102741.00;5061797;28;20041;-48
2021/03/19 09:34:57;;;;;;;5.30;2.20;;;;;;;10.15;79.11;102755.06;5068502;28;20048;-47
2021/03/19 09:37:46;;;;;;;2.97;2.10;;;;;;;10.14;78.87;102756.19;5065429;28;20148;-48
2021/03/19 09:40:36;;;;;;;2.05;1.92;;;;;;;10.39;78.59;102740.09;5055872;28;20056;-48
2021/03/19 09:43:03;;;;;;;5.30;2.15;;;;;;;11.10;78.91;102744.66;5067357;28;20053;-49
2021/03/19 09:45:33;;;;;;;3.75;2.80;;;;;;;11.63;78.22;102742.41;5071255;28;20068;-49
2021/03/19 09:48:19;;;;;;;10.23;3.03;;;;;;;11.54;74.02;102739.50;5070931;28;20036;-48
2021/03/19 09:50:53;;;;;;;5.72;3.60;;;;;;;11.75;76.36;102748.34;5069900;28;20554;-48
2021/03/19 09:53:19;;;;;;;12.95;4.28;;;;;;;11.75;76.28;102755.84;5071148;28;20131;-52
2021/03/19 09:55:53;;;;;;;5.57;3.40;;;;;;;11.94;74.88;102759.41;5070519;28;20067;-48
2021/03/19 09:58:20;;;;;;;4.07;3.45;;;;;;;12.26;75.24;102759.31;5073146;28;20055;-50
2021/03/19 10:00:49;;;;;;;8.77;4.93;;;;;;;12.84;73.97;102757.53;5070832;28;20064;-48
2021/03/19 10:03:16;;;;;;;9.48;6.10;;;;;;;13.63;73.05;102769.06;5066796;28;20056;-49
2021/03/19 10:05:48;;;;;;;11.85;7.90;;;;;;;14.25;71.54;102763.50;5058300;28;20114;-50
2021/03/19 10:08:30;;;;;;;8.55;6.30;;;;;;;14.04;66.40;102766.84;5053279;28;20098;-49
2021/03/19 10:11:09;;;;;;;11.38;7.75;;;;;;;13.64;68.05;102767.91;5069681;28;20470;-55
2021/03/19 10:13:35;;;;;;;12.15;7.30;;;;;;;13.47;70.14;102765.00;5070132;28;20106;-51
2021/03/19 10:16:03;;;;;;;8.63;7.28;;;;;;;13.25;69.63;102762.19;5070795;28;20049;-53
2021/03/19 10:18:46;;;;;;;13.20;7.32;;;;;;;13.47;69.53;102762.22;5069813;28;20044;-50
2021/03/19 10:21:19;;;;;;;16.85;8.02;;;;;;;13.57;69.03;102764.75;5070076;28;20045;-49
2021/03/19 10:23:45;;;;;;;10.45;6.82;;;;;;;13.71;69.00;102764.69;5069458;28;20044;-51
2021/03/19 10:26:21;;;;;;;14.05;6.97;;;;;;;14.11;68.16;102765.59;5068554;28;20122;-54
2021/03/19 10:28:52;;;;;;;8.52;6.18;;;;;;;14.75;67.38;102759.28;5068429;28;20064;-51
2021/03/19 10:31:27;;;;;;;8.90;5.93;;;;;;;15.16;63.70;102768.06;5051253;28;20131;-56
2021/03/19 10:34:05;;;;;;;5.20;3.90;;;;;;;14.89;65.64;102759.97;5069770;28;20159;-53
2021/03/19 10:36:48;;;;;;;4.07;3.60;;;;;;;14.33;64.36;102760.78;5051721;28;20769;-50
2021/03/19 10:39:27;;;;;;;4.03;3.40;;;;;;;14.01;65.59;102750.78;5069144;28;20420;-52
2021/03/19 10:42:00;;;;;;;5.28;4.15;;;;;;;14.06;65.64;102749.00;5069323;28;20075;-54
2021/03/19 10:45:14;;;;;;;4.63;3.85;;;;;;;14.10;64.66;102750.00;5070258;28;20047;-53
2021/03/19 10:47:52;;;;;;;7.15;4.13;;;;;;;13.86;64.81;102745.63;5030210;28;20057;-51
2021/03/19 10:50:26;;;;;;;9.48;4.55;;;;;;;13.53;65.38;102749.81;5061455;28;20048;-53
2021/03/19 10:53:04;;;;;;;5.45;4.25;;;;;;;13.20;65.54;102753.97;5054483;28;20044;-53
2021/03/19 10:55:34;;;;;;;7.30;3.88;;;;;;;12.89;65.80;102756.63;5067637;28;20036;-53
2021/03/19 10:58:25;;;;;;;4.80;2.97;;;;;;;12.65;66.27;102754.09;5070038;28;20422;-52
2021/03/19 11:00:53;;;;;;;5.90;3.25;;;;;;;12.58;66.93;102759.22;5066223;28;20104;-50
2021/03/19 11:03:44;;;;;;;4.75;3.40;;;;;;;12.47;66.71;102763.34;5068017;28;20044;-51
2021/03/19 11:06:40;;;;;;;7.30;4.57;;;;;;;12.30;67.10;102767.88;5077912;28;20051;-54
2021/03/19 11:09:21;;;;;;;8.30;5.05;;;;;;;12.17;67.39;102763.97;5075503;28;20501;-47
2021/03/19 11:11:52;;;;;;;5.97;4.20;;;;;;;12.03;67.80;102763.94;5069694;28;20044;-52
2021/03/19 11:14:24;;;;;;;7.22;4.50;;;;;;;11.96;67.82;102765.47;5069717;28;20044;-50
2021/03/19 11:16:56;;;;;;;7.22;3.95;;;;;;;11.89;68.22;102759.47;5055056;28;20516;-54
2021/03/19 11:19:28;;;;;;;6.70;2.72;;;;;;;11.81;68.57;102760.19;5050917;28;20048;-48
2021/03/19 11:22:04;;;;;;;7.83;3.97;;;;;;;11.74;68.69;102770.84;5069942;28;20044;-51
2021/03/19 11:24:38;;;;;;;3.83;3.42;;;;;;;11.68;68.75;102760.91;5069561;28;20324;-51
2021/03/19 11:27:10;;;;;;;5.50;3.72;;;;;;;11.67;68.78;102753.75;5070180;28;20048;-50
2021/03/19 11:29:39;;;;;;;5.93;4.25;;;;;;;11.70;69.13;102758.72;5069891;28;20048;-49
2021/03/19 11:32:14;;;;;;;6.43;3.72;;;;;;;11.70;69.12;102748.44;5070135;28;20132;-50
2021/03/19 11:34:48;;;;;;;4.75;3.80;;;;;;;11.74;69.21;102754.19;5069891;28;20041;-48
2021/03/19 11:37:22;;;;;;;4.13;1.90;;;;;;;11.78;69.31;102758.03;5050209;28;20110;-51
2021/03/19 11:40:20;;;;;;;3.40;1.90;;;;;;;11.84;69.50;102754.00;5069225;28;20052;-48
2021/03/19 11:42:47;;;;;;;6.30;3.13;;;;;;;11.96;69.23;102757.97;5068690;28;20580;-49
2021/03/19 11:45:20;;;;;;;6.03;2.28;;;;;;;12.04;69.20;102760.03;5069286;28;20048;-49
2021/03/19 11:47:56;;;;;;;6.28;1.73;;;;;;;12.13;69.23;102755.41;5069072;28;20114;-52
2021/03/19 11:50:36;;;;;;;2.80;1.42;;;;;;;12.19;68.84;102756.13;5068177;28;20060;-51
2021/03/19 11:53:06;;;;;;;4.05;1.25;;;;;;;12.27;69.06;102749.88;5070468;28;20080;-52
2021/03/19 11:55:45;;;;;;;4.18;1.38;;;;;;;12.37;68.61;102760.78;5069094;28;20052;-48
2021/03/19 11:58:14;;;;;;;2.90;1.20;;;;;;;12.38;68.66;102756.88;5069823;28;20079;-53
2021/03/19 12:00:41;;;;;;;2.50;1.45;;;;;;;12.36;68.43;102758.31;5069587;28;20044;-51
2021/03/19 12:03:15;;;;;;;1.75;1.20;;;;;;;12.31;68.22;102753.66;5051889;28;20051;-49
2021/03/19 12:05:42;;;;;;;2.15;1.33;;;;;;;12.23;68.02;102757.19;5054556;28;20041;-47
2021/03/19 12:08:08;;;;;;;3.05;1.15;;;;;;;12.19;68.07;102761.69;5067858;28;20048;-49